sensor_id;sensor_type;location;lat;lon;timestamp;temperature;humidity
31967;DHT22;18496;52.042;6.812;2022-10-17T00:00:02;18.20;99.90
31967;DHT22;18496;52.042;6.812;2022-10-17T00:02:08;18.20;99.90
31967;DHT22;18496;52.042;6.812;2022-10-17T00:04:12;18.10;99.90
31967;DHT22;18496;52.042;6.812;2022-10-17T00:06:15;18.20;99.90
31967;DHT22;18496;52.042;6.812;2022-10-17T00:08:19;18.20;99.90
31967;DHT22;18496;52.042;6.812;2022-10-17T00:10:23;18.20;99.90
31967;DHT22;18496;52.042;6.812;2022-10-17T00:12:26;18.20;99.90
31967;DHT22;18496;52.042;6.812;2022-10-17T00:14:30;18.20;99.90
31967;DHT22;18496;52.042;6.812;2022-10-17T00:16:34;18.20;99.90
31967;DHT22;18496;52.042;6.812;2022-10-17T00:18:39;18.20;99.90
31967;DHT22;18496;52.042;6.812;2022-10-17T00:20:43;18.20;99.90
31967;DHT22;18496;52.042;6.812;2022-10-17T00:22:46;18.20;99.90
31967;DHT22;18496;52.042;6.812;2022-10-17T00:24:50;18.20;99.90
31967;DHT22;18496;52.042;6.812;2022-10-17T00:26:53;18.20;99.90
31967;DHT22;18496;52.042;6.812;2022-10-17T00:28:57;18.10;99.90
31967;DHT22;18496;52.042;6.812;2022-10-17T00:31:02;18.10;99.90
31967;DHT22;18496;52.042;6.812;2022-10-17T00:33:06;18.10;99.90
31967;DHT22;18496;52.042;6.812;2022-10-17T00:35:10;18.10;99.90
31967;DHT22;18496;52.042;6.812;2022-10-17T00:37:14;18.10;99.90
31967;DHT22;18496;52.042;6.812;2022-10-17T00:39:17;18.10;99.90
31967;DHT22;18496;52.042;6.812;2022-10-17T00:41:26;18.10;99.90
31967;DHT22;18496;52.042;6.812;2022-10-17T00:45:53;18.10;99.90
31967;DHT22;18496;52.042;6.812;2022-10-17T00:48:01;18.10;99.90
31967;DHT22;18496;52.042;6.812;2022-10-17T00:50:06;18.10;99.90
31967;DHT22;18496;52.042;6.812;2022-10-17T00:52:11;18.10;99.90
31967;DHT22;18496;52.042;6.812;2022-10-17T00:54:18;18.10;99.90
31967;DHT22;18496;52.042;6.812;2022-10-17T00:56:23;18.10;99.90
31967;DHT22;18496;52.042;6.812;2022-10-17T00:58:27;18.10;99.90
31967;DHT22;18496;52.042;6.812;2022-10-17T01:00:30;18.10;99.90
31967;DHT22;18496;52.042;6.812;2022-10-17T01:02:35;18.20;99.90
31967;DHT22;18496;52.042;6.812;2022-10-17T01:04:39;18.20;99.90
31967;DHT22;18496;52.042;6.812;2022-10-17T01:06:43;18.10;99.90
31967;DHT22;18496;52.042;6.812;2022-10-17T01:08:47;18.20;99.90
31967;DHT22;18496;52.042;6.812;2022-10-17T01:11:02;18.20;99.90
31967;DHT22;18496;52.042;6.812;2022-10-17T01:13:12;18.10;99.90
31967;DHT22;18496;52.042;6.812;2022-10-17T01:33:11;17.90;99.90
31967;DHT22;18496;52.042;6.812;2022-10-17T01:37:18;17.90;99.90
31967;DHT22;18496;52.042;6.812;2022-10-17T01:41:48;17.90;99.90
31967;DHT22;18496;52.042;6.812;2022-10-17T01:43:58;17.80;99.90
31967;DHT22;18496;52.042;6.812;2022-10-17T01:46:09;17.80;99.90
31967;DHT22;18496;52.042;6.812;2022-10-17T01:48:16;17.80;99.90
31967;DHT22;18496;52.042;6.812;2022-10-17T01:50:24;17.90;99.90
31967;DHT22;18496;52.042;6.812;2022-10-17T01:52:32;17.80;99.90
31967;DHT22;18496;52.042;6.812;2022-10-17T01:54:47;17.80;99.90
31967;DHT22;18496;52.042;6.812;2022-10-17T01:56:54;17.80;99.90
31967;DHT22;18496;52.042;6.812;2022-10-17T01:59:10;17.80;99.90
31967;DHT22;18496;52.042;6.812;2022-10-17T02:01:15;17.80;99.90
31967;DHT22;18496;52.042;6.812;2022-10-17T02:03:19;17.80;99.90
31967;DHT22;18496;52.042;6.812;2022-10-17T02:05:24;17.80;99.90
31967;DHT22;18496;52.042;6.812;2022-10-17T02:07:29;17.80;99.90
31967;DHT22;18496;52.042;6.812;2022-10-17T02:09:32;17.80;99.90
31967;DHT22;18496;52.042;6.812;2022-10-17T02:11:36;17.80;99.90
31967;DHT22;18496;52.042;6.812;2022-10-17T02:15:51;17.70;99.90
31967;DHT22;18496;52.042;6.812;2022-10-17T02:22:51;17.80;99.90
31967;DHT22;18496;52.042;6.812;2022-10-17T02:25:07;17.80;99.90
31967;DHT22;18496;52.042;6.812;2022-10-17T02:27:24;17.80;99.90
31967;DHT22;18496;52.042;6.812;2022-10-17T02:29:37;17.80;99.90
31967;DHT22;18496;52.042;6.812;2022-10-17T02:32:09;17.80;99.90
31967;DHT22;18496;52.042;6.812;2022-10-17T02:34:28;17.80;99.90
31967;DHT22;18496;52.042;6.812;2022-10-17T02:36:51;17.80;99.90
31967;DHT22;18496;52.042;6.812;2022-10-17T02:39:02;17.80;99.90
31967;DHT22;18496;52.042;6.812;2022-10-17T02:41:11;17.80;99.90
31967;DHT22;18496;52.042;6.812;2022-10-17T02:43:19;17.70;99.90
31967;DHT22;18496;52.042;6.812;2022-10-17T02:45:31;17.70;99.90
31967;DHT22;18496;52.042;6.812;2022-10-17T02:47:49;17.70;99.90
31967;DHT22;18496;52.042;6.812;2022-10-17T02:49:59;17.70;99.90
31967;DHT22;18496;52.042;6.812;2022-10-17T02:52:55;17.70;99.90
31967;DHT22;18496;52.042;6.812;2022-10-17T02:54:47;17.70;99.90
31967;DHT22;18496;52.042;6.812;2022-10-17T02:57:00;17.80;99.90
31967;DHT22;18496;52.042;6.812;2022-10-17T02:59:05;17.70;99.90
31967;DHT22;18496;52.042;6.812;2022-10-17T03:04:12;17.60;99.90
31967;DHT22;18496;52.042;6.812;2022-10-17T03:06:19;17.60;99.90
31967;DHT22;18496;52.042;6.812;2022-10-17T03:08:26;17.60;99.90
31967;DHT22;18496;52.042;6.812;2022-10-17T03:10:30;17.50;99.90
31967;DHT22;18496;52.042;6.812;2022-10-17T03:12:38;17.50;99.90
31967;DHT22;18496;52.042;6.812;2022-10-17T03:14:45;17.50;99.90
31967;DHT22;18496;52.042;6.812;2022-10-17T03:16:51;17.50;99.90
31967;DHT22;18496;52.042;6.812;2022-10-17T03:19:05;17.50;99.90
31967;DHT22;18496;52.042;6.812;2022-10-17T03:21:12;17.50;99.90
31967;DHT22;18496;52.042;6.812;2022-10-17T03:23:19;17.50;99.90
31967;DHT22;18496;52.042;6.812;2022-10-17T03:25:23;17.50;99.90
31967;DHT22;18496;52.042;6.812;2022-10-17T03:27:29;17.40;99.90
31967;DHT22;18496;52.042;6.812;2022-10-17T03:29:33;17.40;99.90
31967;DHT22;18496;52.042;6.812;2022-10-17T03:31:41;17.40;99.90
31967;DHT22;18496;52.042;6.812;2022-10-17T03:33:45;17.50;99.90
31967;DHT22;18496;52.042;6.812;2022-10-17T03:35:52;17.50;99.90
31967;DHT22;18496;52.042;6.812;2022-10-17T03:38:01;17.50;99.90
31967;DHT22;18496;52.042;6.812;2022-10-17T03:40:06;17.50;99.90
31967;DHT22;18496;52.042;6.812;2022-10-17T03:42:20;17.40;99.90
31967;DHT22;18496;52.042;6.812;2022-10-17T03:44:24;17.40;99.90
31967;DHT22;18496;52.042;6.812;2022-10-17T03:46:35;17.40;99.90
31967;DHT22;18496;52.042;6.812;2022-10-17T03:48:40;17.40;99.90
31967;DHT22;18496;52.042;6.812;2022-10-17T03:50:44;17.40;99.90
31967;DHT22;18496;52.042;6.812;2022-10-17T03:52:48;17.40;99.90
31967;DHT22;18496;52.042;6.812;2022-10-17T03:54:52;17.40;99.90
31967;DHT22;18496;52.042;6.812;2022-10-17T03:57:02;17.40;99.90
31967;DHT22;18496;52.042;6.812;2022-10-17T03:59:13;17.40;99.90
31967;DHT22;18496;52.042;6.812;2022-10-17T04:01:18;17.30;99.90
31967;DHT22;18496;52.042;6.812;2022-10-17T04:03:25;17.40;99.90
31967;DHT22;18496;52.042;6.812;2022-10-17T04:05:42;17.40;99.90
31967;DHT22;18496;52.042;6.812;2022-10-17T04:07:49;17.30;99.90
31967;DHT22;18496;52.042;6.812;2022-10-17T04:10:10;17.30;99.90
31967;DHT22;18496;52.042;6.812;2022-10-17T04:12:17;17.30;99.90
31967;DHT22;18496;52.042;6.812;2022-10-17T04:14:23;17.30;99.90
31967;DHT22;18496;52.042;6.812;2022-10-17T04:16:32;17.40;99.90
31967;DHT22;18496;52.042;6.812;2022-10-17T04:18:51;17.40;99.90
31967;DHT22;18496;52.042;6.812;2022-10-17T04:21:03;17.40;99.90
31967;DHT22;18496;52.042;6.812;2022-10-17T04:23:09;17.40;99.90
31967;DHT22;18496;52.042;6.812;2022-10-17T04:25:16;17.40;99.90
31967;DHT22;18496;52.042;6.812;2022-10-17T04:27:30;17.50;99.90
31967;DHT22;18496;52.042;6.812;2022-10-17T04:29:44;17.50;99.90
31967;DHT22;18496;52.042;6.812;2022-10-17T04:32:01;17.50;99.90
31967;DHT22;18496;52.042;6.812;2022-10-17T04:34:43;17.50;99.90
31967;DHT22;18496;52.042;6.812;2022-10-17T04:36:58;17.50;99.90
31967;DHT22;18496;52.042;6.812;2022-10-17T04:39:10;17.50;99.90
31967;DHT22;18496;52.042;6.812;2022-10-17T04:41:23;17.50;99.90
31967;DHT22;18496;52.042;6.812;2022-10-17T04:43:30;17.50;99.90
31967;DHT22;18496;52.042;6.812;2022-10-17T04:45:58;17.50;99.90
31967;DHT22;18496;52.042;6.812;2022-10-17T04:48:07;17.50;99.90
31967;DHT22;18496;52.042;6.812;2022-10-17T04:50:14;17.40;99.90
31967;DHT22;18496;52.042;6.812;2022-10-17T04:52:18;17.50;99.90
31967;DHT22;18496;52.042;6.812;2022-10-17T04:54:29;17.40;99.90
31967;DHT22;18496;52.042;6.812;2022-10-17T04:56:46;17.50;99.90
31967;DHT22;18496;52.042;6.812;2022-10-17T04:59:03;17.40;99.90
31967;DHT22;18496;52.042;6.812;2022-10-17T05:01:26;17.40;99.90
31967;DHT22;18496;52.042;6.812;2022-10-17T05:03:38;17.40;99.90
31967;DHT22;18496;52.042;6.812;2022-10-17T05:05:55;17.40;99.90
31967;DHT22;18496;52.042;6.812;2022-10-17T05:08:11;17.40;99.90
31967;DHT22;18496;52.042;6.812;2022-10-17T05:12:51;17.30;99.90
31967;DHT22;18496;52.042;6.812;2022-10-17T05:14:57;17.40;99.90
31967;DHT22;18496;52.042;6.812;2022-10-17T05:17:03;17.40;99.90
31967;DHT22;18496;52.042;6.812;2022-10-17T05:19:07;17.40;99.90
31967;DHT22;18496;52.042;6.812;2022-10-17T05:21:17;17.40;99.90
31967;DHT22;18496;52.042;6.812;2022-10-17T05:23:24;17.40;99.90
31967;DHT22;18496;52.042;6.812;2022-10-17T05:25:52;17.40;99.90
31967;DHT22;18496;52.042;6.812;2022-10-17T05:27:56;17.40;99.90
31967;DHT22;18496;52.042;6.812;2022-10-17T05:30:05;17.40;99.90
31967;DHT22;18496;52.042;6.812;2022-10-17T05:32:16;17.40;99.90
31967;DHT22;18496;52.042;6.812;2022-10-17T05:34:30;17.40;99.90
31967;DHT22;18496;52.042;6.812;2022-10-17T05:36:48;17.50;99.90
31967;DHT22;18496;52.042;6.812;2022-10-17T05:38:58;17.50;99.90
31967;DHT22;18496;52.042;6.812;2022-10-17T05:41:04;17.50;99.90
31967;DHT22;18496;52.042;6.812;2022-10-17T05:43:12;17.50;99.90
31967;DHT22;18496;52.042;6.812;2022-10-17T05:45:22;17.50;99.90
31967;DHT22;18496;52.042;6.812;2022-10-17T05:47:26;17.50;99.90
31967;DHT22;18496;52.042;6.812;2022-10-17T05:49:30;17.50;99.90
31967;DHT22;18496;52.042;6.812;2022-10-17T05:51:33;17.50;99.90
31967;DHT22;18496;52.042;6.812;2022-10-17T05:53:39;17.50;99.90
31967;DHT22;18496;52.042;6.812;2022-10-17T05:55:53;17.50;99.90
31967;DHT22;18496;52.042;6.812;2022-10-17T05:57:58;17.50;99.90
31967;DHT22;18496;52.042;6.812;2022-10-17T06:00:05;17.50;99.90
31967;DHT22;18496;52.042;6.812;2022-10-17T06:02:17;17.50;99.90
31967;DHT22;18496;52.042;6.812;2022-10-17T06:04:21;17.50;99.90
31967;DHT22;18496;52.042;6.812;2022-10-17T06:06:24;17.60;99.90
31967;DHT22;18496;52.042;6.812;2022-10-17T06:08:28;17.60;99.90
31967;DHT22;18496;52.042;6.812;2022-10-17T06:10:32;17.60;99.90
31967;DHT22;18496;52.042;6.812;2022-10-17T06:12:36;17.60;99.90
31967;DHT22;18496;52.042;6.812;2022-10-17T06:14:40;17.60;99.90
31967;DHT22;18496;52.042;6.812;2022-10-17T06:16:44;17.60;99.90
31967;DHT22;18496;52.042;6.812;2022-10-17T06:18:48;17.60;99.90
31967;DHT22;18496;52.042;6.812;2022-10-17T06:20:52;17.60;99.90
31967;DHT22;18496;52.042;6.812;2022-10-17T06:22:56;17.60;99.90
31967;DHT22;18496;52.042;6.812;2022-10-17T06:25:17;17.60;99.90
31967;DHT22;18496;52.042;6.812;2022-10-17T06:27:21;17.60;99.90
31967;DHT22;18496;52.042;6.812;2022-10-17T06:29:24;17.60;99.90
31967;DHT22;18496;52.042;6.812;2022-10-17T06:31:29;17.60;99.90
31967;DHT22;18496;52.042;6.812;2022-10-17T06:33:33;17.60;99.90
31967;DHT22;18496;52.042;6.812;2022-10-17T06:35:36;17.50;99.90
31967;DHT22;18496;52.042;6.812;2022-10-17T06:37:40;17.60;99.90
31967;DHT22;18496;52.042;6.812;2022-10-17T06:39:45;17.60;99.90
31967;DHT22;18496;52.042;6.812;2022-10-17T06:41:52;17.60;99.90
31967;DHT22;18496;52.042;6.812;2022-10-17T06:43:56;17.60;99.90
31967;DHT22;18496;52.042;6.812;2022-10-17T06:46:20;17.60;99.90
31967;DHT22;18496;52.042;6.812;2022-10-17T06:48:33;17.70;99.90
31967;DHT22;18496;52.042;6.812;2022-10-17T06:50:49;17.70;99.90
31967;DHT22;18496;52.042;6.812;2022-10-17T06:52:56;17.70;99.90
31967;DHT22;18496;52.042;6.812;2022-10-17T06:55:35;17.70;99.90
31967;DHT22;18496;52.042;6.812;2022-10-17T06:58:04;17.70;99.90
31967;DHT22;18496;52.042;6.812;2022-10-17T07:00:21;17.70;99.90
31967;DHT22;18496;52.042;6.812;2022-10-17T07:02:32;17.60;99.90
31967;DHT22;18496;52.042;6.812;2022-10-17T07:04:38;17.60;99.90
31967;DHT22;18496;52.042;6.812;2022-10-17T07:06:41;17.70;99.90
31967;DHT22;18496;52.042;6.812;2022-10-17T07:08:52;17.70;99.90
31967;DHT22;18496;52.042;6.812;2022-10-17T07:10:56;17.70;99.90
31967;DHT22;18496;52.042;6.812;2022-10-17T07:12:59;17.70;99.90
31967;DHT22;18496;52.042;6.812;2022-10-17T07:15:09;17.70;99.90
31967;DHT22;18496;52.042;6.812;2022-10-17T07:17:13;17.70;99.90
31967;DHT22;18496;52.042;6.812;2022-10-17T07:19:18;17.70;99.90
31967;DHT22;18496;52.042;6.812;2022-10-17T07:21:22;17.70;99.90
31967;DHT22;18496;52.042;6.812;2022-10-17T07:23:25;17.70;99.90
31967;DHT22;18496;52.042;6.812;2022-10-17T07:25:30;17.70;99.90
31967;DHT22;18496;52.042;6.812;2022-10-17T07:27:37;17.70;99.90
31967;DHT22;18496;52.042;6.812;2022-10-17T07:29:41;17.70;99.90
31967;DHT22;18496;52.042;6.812;2022-10-17T07:31:54;17.70;99.90
31967;DHT22;18496;52.042;6.812;2022-10-17T07:34:00;17.80;99.90
31967;DHT22;18496;52.042;6.812;2022-10-17T07:36:05;17.80;99.90
31967;DHT22;18496;52.042;6.812;2022-10-17T07:38:08;17.80;99.90
31967;DHT22;18496;52.042;6.812;2022-10-17T07:40:12;17.90;99.90
31967;DHT22;18496;52.042;6.812;2022-10-17T07:42:16;17.90;99.90
31967;DHT22;18496;52.042;6.812;2022-10-17T07:44:19;17.90;99.90
31967;DHT22;18496;52.042;6.812;2022-10-17T07:46:26;17.90;99.90
31967;DHT22;18496;52.042;6.812;2022-10-17T07:48:30;17.90;99.90
31967;DHT22;18496;52.042;6.812;2022-10-17T07:50:34;18.00;99.90
31967;DHT22;18496;52.042;6.812;2022-10-17T07:52:37;18.00;99.90
31967;DHT22;18496;52.042;6.812;2022-10-17T07:54:41;18.00;99.90
31967;DHT22;18496;52.042;6.812;2022-10-17T07:56:45;18.00;99.90
31967;DHT22;18496;52.042;6.812;2022-10-17T07:58:52;18.10;99.90
31967;DHT22;18496;52.042;6.812;2022-10-17T08:00:59;18.10;99.90
31967;DHT22;18496;52.042;6.812;2022-10-17T08:03:03;18.10;99.90
31967;DHT22;18496;52.042;6.812;2022-10-17T08:05:06;18.20;99.90
31967;DHT22;18496;52.042;6.812;2022-10-17T08:07:10;18.20;99.90
31967;DHT22;18496;52.042;6.812;2022-10-17T08:09:14;18.20;99.90
31967;DHT22;18496;52.042;6.812;2022-10-17T08:11:18;18.20;99.90
31967;DHT22;18496;52.042;6.812;2022-10-17T08:13:21;18.20;99.90
31967;DHT22;18496;52.042;6.812;2022-10-17T08:15:25;18.30;99.90
31967;DHT22;18496;52.042;6.812;2022-10-17T08:17:29;18.30;99.90
31967;DHT22;18496;52.042;6.812;2022-10-17T08:19:32;18.40;99.90
31967;DHT22;18496;52.042;6.812;2022-10-17T08:21:36;18.40;99.90
31967;DHT22;18496;52.042;6.812;2022-10-17T08:23:40;18.40;99.90
31967;DHT22;18496;52.042;6.812;2022-10-17T08:25:44;18.50;99.90
31967;DHT22;18496;52.042;6.812;2022-10-17T08:27:47;18.50;99.90
31967;DHT22;18496;52.042;6.812;2022-10-17T08:29:51;18.50;99.90
31967;DHT22;18496;52.042;6.812;2022-10-17T08:31:55;18.50;99.90
31967;DHT22;18496;52.042;6.812;2022-10-17T08:33:59;18.60;99.90
31967;DHT22;18496;52.042;6.812;2022-10-17T08:36:03;18.60;99.90
31967;DHT22;18496;52.042;6.812;2022-10-17T08:38:07;18.70;99.90
31967;DHT22;18496;52.042;6.812;2022-10-17T08:40:30;18.70;99.90
31967;DHT22;18496;52.042;6.812;2022-10-17T08:45:11;18.70;99.90
31967;DHT22;18496;52.042;6.812;2022-10-17T08:47:23;18.80;99.90
31967;DHT22;18496;52.042;6.812;2022-10-17T08:51:36;18.80;99.90
31967;DHT22;18496;52.042;6.812;2022-10-17T08:53:45;18.80;99.90
31967;DHT22;18496;52.042;6.812;2022-10-17T08:55:51;18.80;99.90
31967;DHT22;18496;52.042;6.812;2022-10-17T08:57:58;18.90;99.90
31967;DHT22;18496;52.042;6.812;2022-10-17T09:00:02;18.90;99.90
31967;DHT22;18496;52.042;6.812;2022-10-17T09:22:08;19.20;99.90
31967;DHT22;18496;52.042;6.812;2022-10-17T09:24:18;19.20;99.90
31967;DHT22;18496;52.042;6.812;2022-10-17T09:26:23;19.20;99.90
31967;DHT22;18496;52.042;6.812;2022-10-17T09:28:29;19.30;99.90
31967;DHT22;18496;52.042;6.812;2022-10-17T09:30:35;19.30;99.90
31967;DHT22;18496;52.042;6.812;2022-10-17T09:32:40;19.30;99.90
31967;DHT22;18496;52.042;6.812;2022-10-17T09:34:45;19.40;99.90
31967;DHT22;18496;52.042;6.812;2022-10-17T09:36:48;19.40;99.90
31967;DHT22;18496;52.042;6.812;2022-10-17T09:38:53;19.40;99.90
31967;DHT22;18496;52.042;6.812;2022-10-17T09:40:58;19.40;99.90
31967;DHT22;18496;52.042;6.812;2022-10-17T09:43:04;19.50;99.90
31967;DHT22;18496;52.042;6.812;2022-10-17T09:45:15;19.50;99.90
31967;DHT22;18496;52.042;6.812;2022-10-17T09:47:25;19.50;99.90
31967;DHT22;18496;52.042;6.812;2022-10-17T09:49:40;19.50;99.90
31967;DHT22;18496;52.042;6.812;2022-10-17T09:51:44;19.50;99.90
31967;DHT22;18496;52.042;6.812;2022-10-17T09:53:49;19.50;99.90
31967;DHT22;18496;52.042;6.812;2022-10-17T09:55:57;19.50;99.90
31967;DHT22;18496;52.042;6.812;2022-10-17T09:58:02;19.50;99.90
31967;DHT22;18496;52.042;6.812;2022-10-17T10:00:06;19.50;99.90
31967;DHT22;18496;52.042;6.812;2022-10-17T10:02:21;19.50;99.90
31967;DHT22;18496;52.042;6.812;2022-10-17T10:04:24;19.50;99.90
31967;DHT22;18496;52.042;6.812;2022-10-17T10:06:29;19.50;99.90
31967;DHT22;18496;52.042;6.812;2022-10-17T10:08:34;19.50;99.90
31967;DHT22;18496;52.042;6.812;2022-10-17T10:10:38;19.50;99.90
31967;DHT22;18496;52.042;6.812;2022-10-17T10:12:45;19.50;99.90
31967;DHT22;18496;52.042;6.812;2022-10-17T10:19:36;19.40;99.90
31967;DHT22;18496;52.042;6.812;2022-10-17T10:21:44;19.50;99.90
31967;DHT22;18496;52.042;6.812;2022-10-17T10:28:23;19.40;99.90
31967;DHT22;18496;52.042;6.812;2022-10-17T10:30:29;19.40;99.90
31967;DHT22;18496;52.042;6.812;2022-10-17T10:32:34;19.40;99.90
31967;DHT22;18496;52.042;6.812;2022-10-17T10:37:15;19.30;99.90
31967;DHT22;18496;52.042;6.812;2022-10-17T10:41:46;19.20;99.90
31967;DHT22;18496;52.042;6.812;2022-10-17T10:43:50;19.20;99.90
31967;DHT22;18496;52.042;6.812;2022-10-17T10:45:54;19.30;99.90
31967;DHT22;18496;52.042;6.812;2022-10-17T10:48:18;19.20;99.90
31967;DHT22;18496;52.042;6.812;2022-10-17T10:50:30;19.30;99.90
31967;DHT22;18496;52.042;6.812;2022-10-17T10:52:40;19.30;99.90
31967;DHT22;18496;52.042;6.812;2022-10-17T10:54:49;19.30;99.90
31967;DHT22;18496;52.042;6.812;2022-10-17T10:56:55;19.30;99.90
31967;DHT22;18496;52.042;6.812;2022-10-17T11:01:04;19.30;99.90
31967;DHT22;18496;52.042;6.812;2022-10-17T11:03:17;19.20;99.90
31967;DHT22;18496;52.042;6.812;2022-10-17T11:05:36;19.20;99.90
31967;DHT22;18496;52.042;6.812;2022-10-17T11:12:08;19.10;99.90
31967;DHT22;18496;52.042;6.812;2022-10-17T11:16:52;19.10;99.90
31967;DHT22;18496;52.042;6.812;2022-10-17T11:19:03;19.10;99.90
31967;DHT22;18496;52.042;6.812;2022-10-17T11:21:27;19.10;99.90
31967;DHT22;18496;52.042;6.812;2022-10-17T11:25:39;19.10;99.90
31967;DHT22;18496;52.042;6.812;2022-10-17T11:27:43;19.10;99.90
31967;DHT22;18496;52.042;6.812;2022-10-17T11:29:46;19.10;99.90
31967;DHT22;18496;52.042;6.812;2022-10-17T11:31:50;19.10;99.90
31967;DHT22;18496;52.042;6.812;2022-10-17T11:33:56;19.10;99.90
31967;DHT22;18496;52.042;6.812;2022-10-17T11:36:04;19.10;99.90
31967;DHT22;18496;52.042;6.812;2022-10-17T11:38:17;19.10;99.90
31967;DHT22;18496;52.042;6.812;2022-10-17T11:40:28;19.10;99.90
31967;DHT22;18496;52.042;6.812;2022-10-17T11:42:34;19.10;99.90
31967;DHT22;18496;52.042;6.812;2022-10-17T11:44:40;19.10;99.90
31967;DHT22;18496;52.042;6.812;2022-10-17T11:46:45;19.10;99.90
31967;DHT22;18496;52.042;6.812;2022-10-17T11:51:03;19.10;99.90
31967;DHT22;18496;52.042;6.812;2022-10-17T11:53:18;19.20;99.90
31967;DHT22;18496;52.042;6.812;2022-10-17T11:55:26;19.20;99.90
31967;DHT22;18496;52.042;6.812;2022-10-17T11:57:38;19.20;99.90
31967;DHT22;18496;52.042;6.812;2022-10-17T11:59:51;19.20;99.90
31967;DHT22;18496;52.042;6.812;2022-10-17T12:01:56;19.20;99.90
31967;DHT22;18496;52.042;6.812;2022-10-17T12:06:10;19.30;99.90
31967;DHT22;18496;52.042;6.812;2022-10-17T12:08:22;19.30;99.90
31967;DHT22;18496;52.042;6.812;2022-10-17T12:10:30;19.30;99.90
31967;DHT22;18496;52.042;6.812;2022-10-17T12:12:40;19.40;99.90
31967;DHT22;18496;52.042;6.812;2022-10-17T12:14:45;19.40;99.90
31967;DHT22;18496;52.042;6.812;2022-10-17T12:16:49;19.40;99.90
31967;DHT22;18496;52.042;6.812;2022-10-17T12:21:02;19.40;99.90
31967;DHT22;18496;52.042;6.812;2022-10-17T12:25:20;19.30;99.90
31967;DHT22;18496;52.042;6.812;2022-10-17T12:27:34;19.30;99.90
31967;DHT22;18496;52.042;6.812;2022-10-17T12:29:41;19.30;99.90
31967;DHT22;18496;52.042;6.812;2022-10-17T12:31:44;19.30;99.90
31967;DHT22;18496;52.042;6.812;2022-10-17T12:33:49;19.30;99.90
31967;DHT22;18496;52.042;6.812;2022-10-17T12:40:46;19.30;99.90
31967;DHT22;18496;52.042;6.812;2022-10-17T12:42:55;19.30;99.90
31967;DHT22;18496;52.042;6.812;2022-10-17T12:45:01;19.30;99.90
31967;DHT22;18496;52.042;6.812;2022-10-17T12:52:03;19.30;99.90
31967;DHT22;18496;52.042;6.812;2022-10-17T12:54:12;19.30;99.90
31967;DHT22;18496;52.042;6.812;2022-10-17T12:56:30;19.30;99.90
31967;DHT22;18496;52.042;6.812;2022-10-17T12:58:36;19.30;99.90
31967;DHT22;18496;52.042;6.812;2022-10-17T13:00:54;19.20;99.90
31967;DHT22;18496;52.042;6.812;2022-10-17T13:03:18;19.20;99.90
31967;DHT22;18496;52.042;6.812;2022-10-17T13:05:34;19.20;99.90
31967;DHT22;18496;52.042;6.812;2022-10-17T13:07:39;19.20;99.90
31967;DHT22;18496;52.042;6.812;2022-10-17T13:09:43;19.20;99.90
31967;DHT22;18496;52.042;6.812;2022-10-17T13:11:47;19.20;99.90
31967;DHT22;18496;52.042;6.812;2022-10-17T13:13:53;19.20;99.90
31967;DHT22;18496;52.042;6.812;2022-10-17T13:15:58;19.20;99.90
31967;DHT22;18496;52.042;6.812;2022-10-17T13:18:02;19.20;99.90
31967;DHT22;18496;52.042;6.812;2022-10-17T13:20:16;19.20;99.90
31967;DHT22;18496;52.042;6.812;2022-10-17T13:22:28;19.20;99.90
31967;DHT22;18496;52.042;6.812;2022-10-17T13:24:33;19.20;99.90
31967;DHT22;18496;52.042;6.812;2022-10-17T13:26:36;19.20;99.90
31967;DHT22;18496;52.042;6.812;2022-10-17T13:28:41;19.20;99.90
31967;DHT22;18496;52.042;6.812;2022-10-17T13:30:45;19.20;99.90
31967;DHT22;18496;52.042;6.812;2022-10-17T13:32:49;19.20;99.90
31967;DHT22;18496;52.042;6.812;2022-10-17T13:35:09;19.30;99.90
31967;DHT22;18496;52.042;6.812;2022-10-17T13:37:13;19.30;99.90
31967;DHT22;18496;52.042;6.812;2022-10-17T13:39:19;19.30;99.90
31967;DHT22;18496;52.042;6.812;2022-10-17T13:41:27;19.30;99.90
31967;DHT22;18496;52.042;6.812;2022-10-17T13:43:31;19.20;99.90
31967;DHT22;18496;52.042;6.812;2022-10-17T13:45:36;19.30;99.90
31967;DHT22;18496;52.042;6.812;2022-10-17T13:47:40;19.30;99.90
31967;DHT22;18496;52.042;6.812;2022-10-17T13:49:43;19.30;99.90
31967;DHT22;18496;52.042;6.812;2022-10-17T13:51:48;19.30;99.90
31967;DHT22;18496;52.042;6.812;2022-10-17T13:53:52;19.30;99.90
31967;DHT22;18496;52.042;6.812;2022-10-17T13:58:13;19.30;99.90
31967;DHT22;18496;52.042;6.812;2022-10-17T14:00:18;19.30;99.90
31967;DHT22;18496;52.042;6.812;2022-10-17T14:02:23;19.30;99.90
31967;DHT22;18496;52.042;6.812;2022-10-17T14:04:28;19.30;99.90
31967;DHT22;18496;52.042;6.812;2022-10-17T14:06:32;19.30;99.90
31967;DHT22;18496;52.042;6.812;2022-10-17T14:08:36;19.30;99.90
31967;DHT22;18496;52.042;6.812;2022-10-17T14:10:41;19.30;99.90
31967;DHT22;18496;52.042;6.812;2022-10-17T14:12:45;19.30;99.90
31967;DHT22;18496;52.042;6.812;2022-10-17T14:14:50;19.30;99.90
31967;DHT22;18496;52.042;6.812;2022-10-17T14:16:55;19.30;99.90
31967;DHT22;18496;52.042;6.812;2022-10-17T14:18:58;19.30;99.90
31967;DHT22;18496;52.042;6.812;2022-10-17T14:21:03;19.30;99.90
31967;DHT22;18496;52.042;6.812;2022-10-17T14:23:25;19.30;99.90
31967;DHT22;18496;52.042;6.812;2022-10-17T14:25:31;19.30;99.90
31967;DHT22;18496;52.042;6.812;2022-10-17T14:27:51;19.30;99.90
31967;DHT22;18496;52.042;6.812;2022-10-17T14:29:57;19.30;99.90
31967;DHT22;18496;52.042;6.812;2022-10-17T14:32:06;19.30;99.90
31967;DHT22;18496;52.042;6.812;2022-10-17T14:34:20;19.30;99.90
31967;DHT22;18496;52.042;6.812;2022-10-17T14:36:31;19.30;99.90
31967;DHT22;18496;52.042;6.812;2022-10-17T14:38:35;19.30;99.90
31967;DHT22;18496;52.042;6.812;2022-10-17T14:40:46;19.20;99.90
31967;DHT22;18496;52.042;6.812;2022-10-17T14:42:52;19.30;99.90
31967;DHT22;18496;52.042;6.812;2022-10-17T14:44:59;19.30;99.90
31967;DHT22;18496;52.042;6.812;2022-10-17T14:47:05;19.30;99.90
31967;DHT22;18496;52.042;6.812;2022-10-17T14:49:16;19.30;99.90
31967;DHT22;18496;52.042;6.812;2022-10-17T14:51:21;19.20;99.90
31967;DHT22;18496;52.042;6.812;2022-10-17T14:53:25;19.20;99.90
31967;DHT22;18496;52.042;6.812;2022-10-17T14:55:31;19.20;99.90
31967;DHT22;18496;52.042;6.812;2022-10-17T14:57:44;19.20;99.90
31967;DHT22;18496;52.042;6.812;2022-10-17T14:59:48;19.20;99.90
31967;DHT22;18496;52.042;6.812;2022-10-17T15:01:52;19.20;99.90
31967;DHT22;18496;52.042;6.812;2022-10-17T15:03:55;19.20;99.90
31967;DHT22;18496;52.042;6.812;2022-10-17T15:06:08;19.20;99.90
31967;DHT22;18496;52.042;6.812;2022-10-17T15:08:12;19.20;99.90
31967;DHT22;18496;52.042;6.812;2022-10-17T15:10:32;19.20;99.90
31967;DHT22;18496;52.042;6.812;2022-10-17T15:12:36;19.20;99.90
31967;DHT22;18496;52.042;6.812;2022-10-17T15:14:40;19.20;99.90